Jackson, MN

8:21 AM CDT on July 20, 2017 (GMT -0500)
Jackson Municipal

Weather History for KMJQ - September, 2012

Change the Weather History Date:

Sunday, September 30, 2012

  Actual Average Record
Temperature  
Mean Temperature 66 °F -  
Max Temperature 80 °F 63 °F 84 °F (2000)
Min Temperature 53 °F 40 °F 30 °F (2003)
Cooling Degree Days 2    
Growing Degree Days 16 (Base 50)    
Moisture  
Dew Point 34 °F    
Average Humidity 34    
Maximum Humidity 51    
Minimum Humidity 16    
Precipitation  
Precipitation 0.00 in - - ()
Sea Level Pressure  
Sea Level Pressure 29.98 in    
Wind  
Wind Speed 3 mph (West)    
Max Wind Speed 6 mph    
Max Gust Speed -    
Visibility 9 miles    
Events      
Averages and records for this station are not official NWS values.
T = Trace of Precipitation, MM = Missing Value Source: NWS Daily Summary

Daily Weather History Graph

Daily Weather History Graph

Search for Another Location

Airport or City:

Trip Planner

Search our weather history database for the weather conditions in past years. The results will help you decide how hot, cold, wet, or windy it might be!

Date:

Astronomy

Sep. 30, 2012 Rise Set
Actual Time 7:16 AM CDT 7:01 PM CDT
Civil Twilight 6:48 AM CDT 7:30 PM CDT
Nautical Twilight 6:15 AM CDT 8:03 PM CDT
Astronomical Twilight 5:41 AM CDT 8:37 PM CDT
Moon 7:02 PM CDT (9/30) 7:51 AM CDT (9/30)
Length of Visible Light 12h 42m
Length of Day
11h 44m
Full, 100% of the Moon is Illuminated
Sep 30
Full
Oct 8
Last Quarter
Oct 15
New
Oct 21
First Quarter
Oct 29
Full

Hourly Weather History & Observations

Time (CDT) Temp. Dew Point Humidity Pressure Visibility Wind Dir Wind Speed Gust Speed Precip Events Conditions
12:13 AM 59.0 °F 35.6 °F 42% 30.05 in 10.0 mi West 4.6 mph - N/A   Clear
12:34 AM 60.8 °F 35.6 °F 39% 30.05 in 10.0 mi West 3.5 mph - N/A   Clear
12:54 AM 57.2 °F 35.6 °F 44% 30.04 in 10.0 mi Calm Calm - N/A   Clear
1:13 AM 55.4 °F 35.6 °F 47% 30.04 in 10.0 mi Calm Calm - N/A   Clear
1:34 AM 55.4 °F 35.6 °F 47% 30.04 in 10.0 mi Calm Calm - N/A   Clear
1:53 AM 55.4 °F 35.6 °F 47% 30.04 in 10.0 mi Calm Calm - N/A   Clear
2:14 AM 57.2 °F 35.6 °F 44% 30.04 in 10.0 mi Calm Calm - N/A   Clear
2:34 AM 55.4 °F 35.6 °F 47% 30.03 in 10.0 mi West 3.5 mph - N/A   Clear
2:53 AM 55.4 °F 35.6 °F 47% 30.03 in 10.0 mi West 3.5 mph - N/A   Clear
3:14 AM 55.4 °F 35.6 °F 47% 30.02 in 10.0 mi West 3.5 mph - N/A   Clear
3:34 AM 55.4 °F 35.6 °F 47% 30.02 in 10.0 mi West 4.6 mph - N/A   Clear
3:53 AM 55.4 °F 35.6 °F 47% 30.02 in 10.0 mi West 3.5 mph - N/A   Clear
4:14 AM 55.4 °F 35.6 °F 47% 30.02 in 10.0 mi West 5.8 mph - N/A   Clear
4:33 AM 55.4 °F 35.6 °F 47% 30.02 in 10.0 mi West 5.8 mph - N/A   Clear
4:53 AM 53.6 °F 35.6 °F 51% 30.02 in 10.0 mi West 5.8 mph - N/A   Clear
5:14 AM 55.4 °F 35.6 °F 47% 30.02 in 10.0 mi West 5.8 mph - N/A   Clear
5:33 AM 55.4 °F 35.6 °F 47% 30.01 in 10.0 mi West 5.8 mph - N/A   Clear
5:53 AM 55.4 °F 33.8 °F 44% 30.01 in 10.0 mi West 4.6 mph - N/A   Clear
6:14 AM 53.6 °F 35.6 °F 51% 30.00 in 10.0 mi West 4.6 mph - N/A   Clear
6:33 AM 53.6 °F 35.6 °F 51% 30.01 in 10.0 mi West 3.5 mph - N/A   Clear
6:53 AM 53.6 °F 33.8 °F 47% 30.00 in 10.0 mi Calm Calm - N/A   Clear
7:14 AM 53.6 °F 33.8 °F 47% 30.01 in 10.0 mi West 3.5 mph - N/A   Clear
7:33 AM 53.6 °F 35.6 °F 51% 30.01 in 10.0 mi Calm Calm - N/A   Clear
7:54 AM 53.6 °F 35.6 °F 51% 30.01 in 10.0 mi Calm Calm - N/A   Clear
8:14 AM 53.6 °F 35.6 °F 51% 30.01 in 10.0 mi Calm Calm - N/A   Clear
8:33 AM 55.4 °F 37.4 °F 51% 30.01 in 10.0 mi Calm Calm - N/A   Clear
8:54 AM 59.0 °F 39.2 °F 48% 30.01 in 10.0 mi Calm Calm - N/A   Clear
9:14 AM 60.8 °F 39.2 °F 45% 30.01 in 10.0 mi Calm Calm - N/A   Clear
9:33 AM 64.4 °F 37.4 °F 37% 30.01 in 10.0 mi Calm Calm - N/A   Clear
9:54 AM 68.0 °F 35.6 °F 30% 30.01 in 10.0 mi NW 4.6 mph - N/A   Clear
10:14 AM 71.6 °F 33.8 °F 25% 30.01 in 10.0 mi WNW 5.8 mph - N/A   Clear
10:33 AM 73.4 °F 33.8 °F 23% 30.01 in 10.0 mi NW 5.8 mph - N/A   Clear
10:54 AM 73.4 °F 32.0 °F 22% 30.00 in 10.0 mi NW 4.6 mph - N/A   Clear
11:14 AM 73.4 °F 32.0 °F 22% 30.00 in 10.0 mi North 3.5 mph - N/A   Clear
11:33 AM 75.2 °F 32.0 °F 21% 30.00 in 10.0 mi North 4.6 mph - N/A   Clear
11:54 AM 75.2 °F 32.0 °F 21% 30.00 in 10.0 mi NW 5.8 mph - N/A   Clear
12:14 PM 75.2 °F 32.0 °F 21% 30.00 in 10.0 mi North 3.5 mph - N/A   Clear
12:33 PM 77.0 °F 32.0 °F 19% 30.00 in 10.0 mi NW 3.5 mph - N/A   Clear
12:54 PM 77.0 °F 32.0 °F 19% 29.99 in 10.0 mi West 4.6 mph - N/A   Clear
1:14 PM 77.0 °F 32.0 °F 19% 29.99 in 10.0 mi Calm Calm - N/A   Clear
1:33 PM 78.8 °F 32.0 °F 18% 29.98 in 10.0 mi Calm Calm - N/A   Clear
1:53 PM 78.8 °F 32.0 °F 18% 29.97 in 10.0 mi Calm Calm - N/A   Clear
2:14 PM 78.8 °F 32.0 °F 18% 29.96 in 10.0 mi Calm Calm - N/A   Clear
2:33 PM 78.8 °F 32.0 °F 18% 29.95 in 10.0 mi Calm Calm - N/A   Clear
2:53 PM 78.8 °F 32.0 °F 18% 29.95 in 10.0 mi Calm Calm - N/A   Clear
3:13 PM 78.8 °F 30.2 °F 17% 29.95 in 10.0 mi West 3.5 mph - N/A   Clear
3:34 PM 80.6 °F 30.2 °F 16% 29.95 in 10.0 mi Calm Calm - N/A   Clear
3:53 PM 80.6 °F 30.2 °F 16% 29.94 in 10.0 mi Calm Calm - N/A   Clear
4:13 PM 80.6 °F 30.2 °F 16% 29.94 in 10.0 mi SSW 4.6 mph - N/A   Clear
4:34 PM 80.6 °F 30.2 °F 16% 29.93 in 10.0 mi East 3.5 mph - N/A   Clear
4:53 PM 80.6 °F 30.2 °F 16% 29.93 in 10.0 mi Calm Calm - N/A   Clear
5:13 PM 80.6 °F 30.2 °F 16% 29.93 in 10.0 mi Calm Calm - N/A   Clear
5:34 PM 80.6 °F 30.2 °F 16% 29.92 in 1.5 mi Calm Calm - N/A   Haze
5:53 PM 78.8 °F 30.2 °F 17% 29.92 in 7.0 mi Calm Calm - N/A   Clear
6:13 PM 77.0 °F 32.0 °F 19% 29.92 in 0.8 mi Calm Calm - N/A   Haze
6:34 PM 75.2 °F 33.8 °F 22% 29.92 in 5.0 mi SSE 3.5 mph - N/A   Haze
7:13 PM 71.6 °F 33.8 °F 25% 29.92 in 10.0 mi SSW 4.6 mph - N/A   Clear
7:34 PM 68.0 °F 33.8 °F 28% 29.92 in 7.0 mi SSW 3.5 mph - N/A   Clear
7:53 PM 64.4 °F 37.4 °F 37% 29.92 in 2.0 mi SSW 3.5 mph - N/A   Haze
8:13 PM 64.4 °F 35.6 °F 34% 29.92 in 7.0 mi Calm Calm - N/A   Clear
8:34 PM 62.6 °F 35.6 °F 37% 29.93 in 10.0 mi SSW 3.5 mph - N/A   Clear
8:53 PM 66.2 °F 35.6 °F 32% 29.92 in 10.0 mi SSW 3.5 mph - N/A   Clear
9:14 PM 62.6 °F 37.4 °F 39% 29.93 in 10.0 mi SSW 4.6 mph - N/A   Clear
9:33 PM 60.8 °F 37.4 °F 42% 29.93 in 10.0 mi SSW 3.5 mph - N/A   Clear
10:14 PM 62.6 °F 35.6 °F 37% 29.93 in 10.0 mi SSW 3.5 mph - N/A   Clear
10:33 PM 57.2 °F 39.2 °F 51% 29.93 in 10.0 mi SW 3.5 mph - N/A   Clear
11:13 PM 55.4 °F 37.4 °F 51% 29.93 in 10.0 mi SW 3.5 mph - N/A   Clear
11:33 PM 59.0 °F 37.4 °F 45% 29.93 in 10.0 mi SW 3.5 mph - N/A   Clear